PWSweather.com
Personal Weather Stations
Station Observations
GEELONGWX1
Bell Post Hill, GeelongAU

Bell Post HillGeelongAU

Lat: -38.101, Lon: 144.326

Elevation: 204

Station Type: Davis Vantage Pro2

http://www.geelongweather.com

High Low Average
Temperature 68.3°F20.2°F 52.9°F11.6°F 59.2°F15.1°F
Dew Point 52.4°F11.3°F 46.2°F7.9°F 49.0°F9.4°F
Winds 8.1 mph ENE13.0 mph ENE Calm Calm 2.8 mph 4.5 mph
Wind Gusts 12.7 mph20.4 mph -- 5.6 mph9.0 mph
Humidity 78% 56% 70%
Pressure 30.34 in1027.40 in 30.17 in1021.70 in -
Precipitation 0.00 in0.00 in - -
Hour Temp Dew Point Humidity Winds Wind Gusts Pressure Precip Precip Rate Daily Precip Total
12:00 AM 54.7°F12.6°C 47.6°F8.7°C 77% 2.3 mph NE3.7 kmh NE 3.5 mph5.6 kmh 30.32 in1026.8 mb 0.00 in0.0 mm 0.00 in/hr0.0 mm/hr 0.00 in0.0 mm
12:10 AM 54.6°F12.6°C 47.5°F8.6°C 77% 4.6 mph NE7.4 kmh NE 8.1 mph13.0 kmh 30.31 in1026.4 mb 0.00 in0.0 mm 0.00 in/hr0.0 mm/hr 0.00 in0.0 mm
12:20 AM 54.5°F12.5°C 47.4°F8.6°C 77% 3.5 mph NE5.6 kmh NE 4.6 mph7.4 kmh 30.30 in1026.1 mb 0.00 in0.0 mm 0.00 in/hr0.0 mm/hr 0.00 in0.0 mm
12:30 AM 54.5°F12.5°C 47.4°F8.6°C 77% 2.3 mph E3.7 kmh E 3.5 mph5.6 kmh 30.30 in1026.1 mb 0.00 in0.0 mm 0.00 in/hr0.0 mm/hr 0.00 in0.0 mm
12:40 AM 54.4°F12.4°C 47.4°F8.6°C 77% 2.3 mph E3.7 kmh E 3.5 mph5.6 kmh 30.30 in1026.1 mb 0.00 in0.0 mm 0.00 in/hr0.0 mm/hr 0.00 in0.0 mm
12:50 AM 54.5°F12.5°C 47.4°F8.6°C 77% 2.3 mph ENE3.7 kmh ENE 3.5 mph5.6 kmh 30.30 in1026.1 mb 0.00 in0.0 mm 0.00 in/hr0.0 mm/hr 0.00 in0.0 mm
01:00 AM 54.6°F12.6°C 47.5°F8.6°C 77% 1.2 mph NE1.9 kmh NE 4.6 mph7.4 kmh 30.30 in1026.1 mb 0.00 in0.0 mm 0.00 in/hr0.0 mm/hr 0.00 in0.0 mm
01:10 AM 54.5°F12.5°C 47.4°F8.6°C 77% 3.5 mph E5.6 kmh E 3.5 mph5.6 kmh 30.29 in1025.7 mb 0.00 in0.0 mm 0.00 in/hr0.0 mm/hr 0.00 in0.0 mm
01:20 AM 54.5°F12.5°C 47.4°F8.6°C 77% 2.3 mph NE3.7 kmh NE 4.6 mph7.4 kmh 30.29 in1025.7 mb 0.00 in0.0 mm 0.00 in/hr0.0 mm/hr 0.00 in0.0 mm
01:30 AM 54.6°F12.6°C 47.5°F8.6°C 77% 3.5 mph ENE5.6 kmh ENE 8.1 mph13.0 kmh 30.29 in1025.7 mb 0.00 in0.0 mm 0.00 in/hr0.0 mm/hr 0.00 in0.0 mm
01:40 AM 54.6°F12.6°C 47.5°F8.6°C 77% 2.3 mph ENE3.7 kmh ENE 5.8 mph9.3 kmh 30.29 in1025.7 mb 0.00 in0.0 mm 0.00 in/hr0.0 mm/hr 0.00 in0.0 mm
01:50 AM 54.5°F12.5°C 47.4°F8.6°C 77% 1.2 mph ENE1.9 kmh ENE 6.9 mph11.1 kmh 30.29 in1025.7 mb 0.00 in0.0 mm 0.00 in/hr0.0 mm/hr 0.00 in0.0 mm
02:00 AM 54.6°F12.6°C 47.5°F8.6°C 77% 2.3 mph E3.7 kmh E 3.5 mph5.6 kmh 30.28 in1025.4 mb 0.00 in0.0 mm 0.00 in/hr0.0 mm/hr 0.00 in0.0 mm
02:10 AM 54.6°F12.6°C 47.5°F8.6°C 77% Calm Calm -- 30.28 in1025.4 mb 0.00 in0.0 mm 0.00 in/hr0.0 mm/hr 0.00 in0.0 mm
02:20 AM 54.6°F12.6°C 47.5°F8.6°C 77% 2.3 mph E3.7 kmh E 4.6 mph7.4 kmh 30.28 in1025.4 mb 0.00 in0.0 mm 0.00 in/hr0.0 mm/hr 0.00 in0.0 mm
02:30 AM 54.6°F12.6°C 47.2°F8.4°C 76% 1.2 mph NE1.9 kmh NE 1.2 mph1.9 kmh 30.28 in1025.4 mb 0.00 in0.0 mm 0.00 in/hr0.0 mm/hr 0.00 in0.0 mm
02:40 AM 54.6°F12.6°C 47.2°F8.4°C 76% Calm Calm -- 30.28 in1025.4 mb 0.00 in0.0 mm 0.00 in/hr0.0 mm/hr 0.00 in0.0 mm
02:50 AM 54.6°F12.6°C 47.2°F8.4°C 76% 3.5 mph E5.6 kmh E 3.5 mph5.6 kmh 30.28 in1025.4 mb 0.00 in0.0 mm 0.00 in/hr0.0 mm/hr 0.00 in0.0 mm
03:00 AM 54.5°F12.5°C 47.1°F8.4°C 76% Calm Calm -- 30.29 in1025.7 mb 0.00 in0.0 mm 0.00 in/hr0.0 mm/hr 0.00 in0.0 mm
03:10 AM 54.4°F12.4°C 47.3°F8.5°C 77% 2.3 mph E3.7 kmh E 5.8 mph9.3 kmh 30.28 in1025.4 mb 0.00 in0.0 mm 0.00 in/hr0.0 mm/hr 0.00 in0.0 mm
03:20 AM 54.4°F12.4°C 47.3°F8.5°C 77% 1.2 mph E1.9 kmh E 4.6 mph7.4 kmh 30.28 in1025.4 mb 0.00 in0.0 mm 0.00 in/hr0.0 mm/hr 0.00 in0.0 mm
03:30 AM 54.3°F12.4°C 47.2°F8.4°C 77% Calm Calm -- 30.29 in1025.7 mb 0.00 in0.0 mm 0.00 in/hr0.0 mm/hr 0.00 in0.0 mm
03:40 AM 54.3°F12.4°C 47.2°F8.4°C 77% 1.2 mph E1.9 kmh E 3.5 mph5.6 kmh 30.29 in1025.7 mb 0.00 in0.0 mm 0.00 in/hr0.0 mm/hr 0.00 in0.0 mm
03:50 AM 54.2°F12.3°C 47.2°F8.4°C 77% 1.2 mph ENE1.9 kmh ENE 3.5 mph5.6 kmh 30.29 in1025.7 mb 0.00 in0.0 mm 0.00 in/hr0.0 mm/hr 0.00 in0.0 mm
04:00 AM 54.2°F12.3°C 47.1°F8.4°C 77% 1.2 mph E1.9 kmh E 1.2 mph1.9 kmh 30.30 in1026.1 mb 0.00 in0.0 mm 0.00 in/hr0.0 mm/hr 0.00 in0.0 mm
04:10 AM 54.1°F12.3°C 47.0°F8.3°C 77% 1.2 mph ESE1.9 kmh ESE 1.2 mph1.9 kmh 30.30 in1026.1 mb 0.00 in0.0 mm 0.00 in/hr0.0 mm/hr 0.00 in0.0 mm
04:20 AM 54.0°F12.2°C 47.0°F8.3°C 77% Calm Calm -- 30.30 in1026.1 mb 0.00 in0.0 mm 0.00 in/hr0.0 mm/hr 0.00 in0.0 mm
04:30 AM 53.9°F12.2°C 46.9°F8.3°C 77% Calm Calm -- 30.30 in1026.1 mb 0.00 in0.0 mm 0.00 in/hr0.0 mm/hr 0.00 in0.0 mm
04:40 AM 53.8°F12.1°C 46.8°F8.2°C 77% 1.2 mph SE1.9 kmh SE 2.3 mph3.7 kmh 30.31 in1026.4 mb 0.00 in0.0 mm 0.00 in/hr0.0 mm/hr 0.00 in0.0 mm
04:50 AM 53.7°F12.1°C 46.7°F8.2°C 77% Calm Calm -- 30.31 in1026.4 mb 0.00 in0.0 mm 0.00 in/hr0.0 mm/hr 0.00 in0.0 mm
05:00 AM 53.6°F12.0°C 46.6°F8.1°C 77% Calm Calm -- 30.31 in1026.4 mb 0.00 in0.0 mm 0.00 in/hr0.0 mm/hr 0.00 in0.0 mm
05:10 AM 53.5°F11.9°C 46.5°F8.1°C 77% Calm Calm -- 30.31 in1026.4 mb 0.00 in0.0 mm 0.00 in/hr0.0 mm/hr 0.00 in0.0 mm
05:20 AM 53.5°F11.9°C 46.5°F8.1°C 77% Calm Calm -- 30.31 in1026.4 mb 0.00 in0.0 mm 0.00 in/hr0.0 mm/hr 0.00 in0.0 mm
05:30 AM 53.6°F12.0°C 46.5°F8.1°C 77% Calm Calm -- 30.31 in1026.4 mb 0.00 in0.0 mm 0.00 in/hr0.0 mm/hr 0.00 in0.0 mm
05:40 AM 53.7°F12.1°C 46.7°F8.2°C 77% Calm Calm -- 30.32 in1026.8 mb 0.00 in0.0 mm 0.00 in/hr0.0 mm/hr 0.00 in0.0 mm
05:50 AM 54.0°F12.2°C 47.0°F8.3°C 77% 1.2 mph SE1.9 kmh SE 3.5 mph5.6 kmh 30.32 in1026.8 mb 0.00 in0.0 mm 0.00 in/hr0.0 mm/hr 0.00 in0.0 mm
06:00 AM 54.6°F12.6°C 47.5°F8.6°C 77% 3.5 mph E5.6 kmh E 6.9 mph11.1 kmh 30.32 in1026.8 mb 0.00 in0.0 mm 0.00 in/hr0.0 mm/hr 0.00 in0.0 mm
06:10 AM 57.4°F14.1°C 49.6°F9.8°C 75% 3.5 mph E5.6 kmh E 4.6 mph7.4 kmh 30.33 in1027.1 mb 0.00 in0.0 mm 0.00 in/hr0.0 mm/hr 0.00 in0.0 mm
06:20 AM 57.8°F14.3°C 48.4°F9.1°C 71% 2.3 mph NE3.7 kmh NE 3.5 mph5.6 kmh 30.33 in1027.1 mb 0.00 in0.0 mm 0.00 in/hr0.0 mm/hr 0.00 in0.0 mm
06:30 AM 57.7°F14.3°C 48.3°F9.1°C 71% 4.6 mph ENE7.4 kmh ENE 5.8 mph9.3 kmh 30.33 in1027.1 mb 0.00 in0.0 mm 0.00 in/hr0.0 mm/hr 0.00 in0.0 mm
06:40 AM 57.2°F14.0°C 48.2°F9.0°C 72% 1.2 mph ENE1.9 kmh ENE 4.6 mph7.4 kmh 30.33 in1027.1 mb 0.00 in0.0 mm 0.00 in/hr0.0 mm/hr 0.00 in0.0 mm
06:50 AM 57.3°F14.1°C 48.3°F9.1°C 72% 3.5 mph NE5.6 kmh NE 5.8 mph9.3 kmh 30.34 in1027.4 mb 0.00 in0.0 mm 0.00 in/hr0.0 mm/hr 0.00 in0.0 mm
07:00 AM 57.2°F14.0°C 47.9°F8.8°C 71% 3.5 mph ENE5.6 kmh ENE 6.9 mph11.1 kmh 30.33 in1027.1 mb 0.00 in0.0 mm 0.00 in/hr0.0 mm/hr 0.00 in0.0 mm
07:10 AM 57.5°F14.2°C 48.2°F9.0°C 71% 2.3 mph ENE3.7 kmh ENE 4.6 mph7.4 kmh 30.33 in1027.1 mb 0.00 in0.0 mm 0.00 in/hr0.0 mm/hr 0.00 in0.0 mm
07:20 AM 57.5°F14.2°C 48.2°F9.0°C 71% 4.6 mph ENE7.4 kmh ENE 5.8 mph9.3 kmh 30.34 in1027.4 mb 0.00 in0.0 mm 0.00 in/hr0.0 mm/hr 0.00 in0.0 mm
07:30 AM 57.6°F14.2°C 47.9°F8.8°C 70% 3.5 mph NE5.6 kmh NE 4.6 mph7.4 kmh 30.34 in1027.4 mb 0.00 in0.0 mm 0.00 in/hr0.0 mm/hr 0.00 in0.0 mm
07:40 AM 58.2°F14.6°C 48.9°F9.4°C 71% 2.3 mph E3.7 kmh E 3.5 mph5.6 kmh 30.34 in1027.4 mb 0.00 in0.0 mm 0.00 in/hr0.0 mm/hr 0.00 in0.0 mm
07:50 AM 59.1°F15.1°C 48.6°F9.2°C 68% 3.5 mph E5.6 kmh E 4.6 mph7.4 kmh 30.34 in1027.4 mb 0.00 in0.0 mm 0.00 in/hr0.0 mm/hr 0.00 in0.0 mm
08:00 AM 58.1°F14.5°C 47.6°F8.7°C 68% 1.2 mph E1.9 kmh E 1.2 mph1.9 kmh 30.34 in1027.4 mb 0.00 in0.0 mm 0.00 in/hr0.0 mm/hr 0.00 in0.0 mm
08:10 AM 58.1°F14.5°C 47.6°F8.7°C 68% 2.3 mph NE3.7 kmh NE 6.9 mph11.1 kmh 30.34 in1027.4 mb 0.00 in0.0 mm 0.00 in/hr0.0 mm/hr 0.00 in0.0 mm
08:20 AM 58.8°F14.9°C 49.0°F9.4°C 70% 1.2 mph ESE1.9 kmh ESE 4.6 mph7.4 kmh 30.34 in1027.4 mb 0.00 in0.0 mm 0.00 in/hr0.0 mm/hr 0.00 in0.0 mm
08:30 AM 59.2°F15.1°C 49.0°F9.4°C 69% 2.3 mph ENE3.7 kmh ENE 8.1 mph13.0 kmh 30.34 in1027.4 mb 0.00 in0.0 mm 0.00 in/hr0.0 mm/hr 0.00 in0.0 mm
08:40 AM 59.7°F15.4°C 49.1°F9.5°C 68% 2.3 mph NE3.7 kmh NE 3.5 mph5.6 kmh 30.34 in1027.4 mb 0.00 in0.0 mm 0.00 in/hr0.0 mm/hr 0.00 in0.0 mm
08:50 AM 60.1°F15.6°C 49.1°F9.5°C 67% Calm Calm -- 30.33 in1027.1 mb 0.00 in0.0 mm 0.00 in/hr0.0 mm/hr 0.00 in0.0 mm
09:00 AM 62.0°F16.7°C 49.3°F9.6°C 63% 1.2 mph N1.9 kmh N 3.5 mph5.6 kmh 30.32 in1026.8 mb 0.00 in0.0 mm 0.00 in/hr0.0 mm/hr 0.00 in0.0 mm
09:10 AM 62.5°F16.9°C 49.7°F9.8°C 63% 2.3 mph NE3.7 kmh NE 9.2 mph14.8 kmh 30.32 in1026.8 mb 0.00 in0.0 mm 0.00 in/hr0.0 mm/hr 0.00 in0.0 mm
09:20 AM 62.9°F17.2°C 49.7°F9.8°C 62% 4.6 mph NE7.4 kmh NE 9.2 mph14.8 kmh 30.32 in1026.8 mb 0.00 in0.0 mm 0.00 in/hr0.0 mm/hr 0.00 in0.0 mm
09:30 AM 63.8°F17.7°C 49.6°F9.8°C 60% Calm Calm 3.5 mph5.6 kmh 30.31 in1026.4 mb 0.00 in0.0 mm 0.00 in/hr0.0 mm/hr 0.00 in0.0 mm
09:40 AM 63.7°F17.6°C 49.6°F9.8°C 60% 4.6 mph N7.4 kmh N 6.9 mph11.1 kmh 30.31 in1026.4 mb 0.00 in0.0 mm 0.00 in/hr0.0 mm/hr 0.00 in0.0 mm
09:50 AM 64.5°F18.1°C 49.9°F9.9°C 59% 4.6 mph NNE7.4 kmh NNE 4.6 mph7.4 kmh 30.30 in1026.1 mb 0.00 in0.0 mm 0.00 in/hr0.0 mm/hr 0.00 in0.0 mm
10:00 AM 64.0°F17.8°C 50.7°F10.4°C 62% 5.8 mph NE9.3 kmh NE 8.1 mph13.0 kmh 30.30 in1026.1 mb 0.00 in0.0 mm 0.00 in/hr0.0 mm/hr 0.00 in0.0 mm
10:10 AM 65.0°F18.3°C 50.8°F10.4°C 60% 2.3 mph N3.7 kmh N 5.8 mph9.3 kmh 30.30 in1026.1 mb 0.00 in0.0 mm 0.00 in/hr0.0 mm/hr 0.00 in0.0 mm
10:20 AM 65.4°F18.6°C 50.7°F10.4°C 59% 4.6 mph NE7.4 kmh NE 8.1 mph13.0 kmh 30.30 in1026.1 mb 0.00 in0.0 mm 0.00 in/hr0.0 mm/hr 0.00 in0.0 mm
10:30 AM 65.7°F18.7°C 50.0°F10.0°C 57% Calm Calm 2.3 mph3.7 kmh 30.29 in1025.7 mb 0.00 in0.0 mm 0.00 in/hr0.0 mm/hr 0.00 in0.0 mm
10:40 AM 65.9°F18.8°C 51.1°F10.6°C 59% 3.5 mph NE5.6 kmh NE 9.2 mph14.8 kmh 30.29 in1025.7 mb 0.00 in0.0 mm 0.00 in/hr0.0 mm/hr 0.00 in0.0 mm
10:50 AM 66.4°F19.1°C 51.6°F10.9°C 59% 5.8 mph NE9.3 kmh NE 8.1 mph13.0 kmh 30.30 in1026.1 mb 0.00 in0.0 mm 0.00 in/hr0.0 mm/hr 0.00 in0.0 mm
11:00 AM 66.1°F18.9°C 51.4°F10.8°C 59% 4.6 mph NE7.4 kmh NE 8.1 mph13.0 kmh 30.30 in1026.1 mb 0.00 in0.0 mm 0.00 in/hr0.0 mm/hr 0.00 in0.0 mm
11:10 AM 66.9°F19.4°C 52.1°F11.2°C 59% 3.5 mph ENE5.6 kmh ENE 8.1 mph13.0 kmh 30.29 in1025.7 mb 0.00 in0.0 mm 0.00 in/hr0.0 mm/hr 0.00 in0.0 mm
11:20 AM 66.8°F19.3°C 51.5°F10.8°C 58% 3.5 mph NNE5.6 kmh NNE 9.2 mph14.8 kmh 30.29 in1025.7 mb 0.00 in0.0 mm 0.00 in/hr0.0 mm/hr 0.00 in0.0 mm
11:30 AM 67.0°F19.4°C 51.3°F10.7°C 57% 8.1 mph ENE13.0 kmh ENE 11.5 mph18.5 kmh 30.29 in1025.7 mb 0.00 in0.0 mm 0.00 in/hr0.0 mm/hr 0.00 in0.0 mm
11:40 AM 66.7°F19.3°C 50.5°F10.3°C 56% 4.6 mph E7.4 kmh E 4.6 mph7.4 kmh 30.28 in1025.4 mb 0.00 in0.0 mm 0.00 in/hr0.0 mm/hr 0.00 in0.0 mm
11:50 AM 66.2°F19.0°C 51.5°F10.8°C 59% 2.3 mph NE3.7 kmh NE 8.1 mph13.0 kmh 30.28 in1025.4 mb 0.00 in0.0 mm 0.00 in/hr0.0 mm/hr 0.00 in0.0 mm
12:00 PM 67.0°F19.4°C 51.7°F10.9°C 58% 2.3 mph NE3.7 kmh NE 6.9 mph11.1 kmh 30.28 in1025.4 mb 0.00 in0.0 mm 0.00 in/hr0.0 mm/hr 0.00 in0.0 mm
12:10 PM 67.8°F19.9°C 52.4°F11.3°C 58% 5.8 mph ENE9.3 kmh ENE 10.4 mph16.7 kmh 30.28 in1025.4 mb 0.00 in0.0 mm 0.00 in/hr0.0 mm/hr 0.00 in0.0 mm
12:20 PM 66.7°F19.3°C 50.9°F10.5°C 57% 3.5 mph NE5.6 kmh NE 8.1 mph13.0 kmh 30.28 in1025.4 mb 0.00 in0.0 mm 0.00 in/hr0.0 mm/hr 0.00 in0.0 mm
12:30 PM 67.2°F19.6°C 51.0°F10.6°C 56% 6.9 mph NE11.1 kmh NE 8.1 mph13.0 kmh 30.27 in1025.1 mb 0.00 in0.0 mm 0.00 in/hr0.0 mm/hr 0.00 in0.0 mm
12:40 PM 67.5°F19.7°C 52.2°F11.2°C 58% 3.5 mph E5.6 kmh E 5.8 mph9.3 kmh 30.26 in1024.7 mb 0.00 in0.0 mm 0.00 in/hr0.0 mm/hr 0.00 in0.0 mm
12:50 PM 67.0°F19.4°C 51.3°F10.7°C 57% 4.6 mph NE7.4 kmh NE 6.9 mph11.1 kmh 30.26 in1024.7 mb 0.00 in0.0 mm 0.00 in/hr0.0 mm/hr 0.00 in0.0 mm
01:00 PM 66.9°F19.4°C 51.2°F10.7°C 57% 5.8 mph ENE9.3 kmh ENE 10.4 mph16.7 kmh 30.26 in1024.7 mb 0.00 in0.0 mm 0.00 in/hr0.0 mm/hr 0.00 in0.0 mm
01:10 PM 67.1°F19.5°C 50.8°F10.4°C 56% 4.6 mph E7.4 kmh E 5.8 mph9.3 kmh 30.25 in1024.4 mb 0.00 in0.0 mm 0.00 in/hr0.0 mm/hr 0.00 in0.0 mm
01:20 PM 68.3°F20.2°C 52.0°F11.1°C 56% 5.8 mph ENE9.3 kmh ENE 10.4 mph16.7 kmh 30.24 in1024.0 mb 0.00 in0.0 mm 0.00 in/hr0.0 mm/hr 0.00 in0.0 mm
01:30 PM 67.4°F19.7°C 51.2°F10.7°C 56% 5.8 mph NE9.3 kmh NE 8.1 mph13.0 kmh 30.24 in1024.0 mb 0.00 in0.0 mm 0.00 in/hr0.0 mm/hr 0.00 in0.0 mm
01:40 PM 67.8°F19.9°C 52.0°F11.1°C 57% 3.5 mph E5.6 kmh E 5.8 mph9.3 kmh 30.24 in1024.0 mb 0.00 in0.0 mm 0.00 in/hr0.0 mm/hr 0.00 in0.0 mm
01:50 PM 68.0°F20.0°C 52.2°F11.2°C 57% 4.6 mph E7.4 kmh E 8.1 mph13.0 kmh 30.24 in1024.0 mb 0.00 in0.0 mm 0.00 in/hr0.0 mm/hr 0.00 in0.0 mm
02:00 PM 67.8°F19.9°C 52.0°F11.1°C 57% 1.2 mph E1.9 kmh E 5.8 mph9.3 kmh 30.23 in1023.7 mb 0.00 in0.0 mm 0.00 in/hr0.0 mm/hr 0.00 in0.0 mm
02:10 PM 67.4°F19.7°C 51.7°F10.9°C 57% 4.6 mph E7.4 kmh E 9.2 mph14.8 kmh 30.24 in1024.0 mb 0.00 in0.0 mm 0.00 in/hr0.0 mm/hr 0.00 in0.0 mm
02:20 PM 67.3°F19.6°C 51.1°F10.6°C 56% 5.8 mph ENE9.3 kmh ENE 10.4 mph16.7 kmh 30.23 in1023.7 mb 0.00 in0.0 mm 0.00 in/hr0.0 mm/hr 0.00 in0.0 mm
02:30 PM 66.8°F19.3°C 51.0°F10.6°C 57% 6.9 mph NE11.1 kmh NE 10.4 mph16.7 kmh 30.23 in1023.7 mb 0.00 in0.0 mm 0.00 in/hr0.0 mm/hr 0.00 in0.0 mm
02:40 PM 66.6°F19.2°C 51.8°F11.0°C 59% 3.5 mph E5.6 kmh E 6.9 mph11.1 kmh 30.22 in1023.4 mb 0.00 in0.0 mm 0.00 in/hr0.0 mm/hr 0.00 in0.0 mm
02:50 PM 66.5°F19.2°C 50.8°F10.4°C 57% 6.9 mph NE11.1 kmh NE 10.4 mph16.7 kmh 30.22 in1023.4 mb 0.00 in0.0 mm 0.00 in/hr0.0 mm/hr 0.00 in0.0 mm
03:00 PM 66.4°F19.1°C 51.2°F10.7°C 58% 8.1 mph E13.0 kmh E 8.1 mph13.0 kmh 30.22 in1023.4 mb 0.00 in0.0 mm 0.00 in/hr0.0 mm/hr 0.00 in0.0 mm
03:10 PM 66.4°F19.1°C 50.7°F10.4°C 57% 5.8 mph NE9.3 kmh NE 12.7 mph20.4 kmh 30.21 in1023.0 mb 0.00 in0.0 mm 0.00 in/hr0.0 mm/hr 0.00 in0.0 mm
03:20 PM 65.8°F18.8°C 51.6°F10.9°C 60% 4.6 mph ENE7.4 kmh ENE 6.9 mph11.1 kmh 30.21 in1023.0 mb 0.00 in0.0 mm 0.00 in/hr0.0 mm/hr 0.00 in0.0 mm
03:30 PM 65.8°F18.8°C 51.5°F10.8°C 60% 3.5 mph E5.6 kmh E 6.9 mph11.1 kmh 30.21 in1023.0 mb 0.00 in0.0 mm 0.00 in/hr0.0 mm/hr 0.00 in0.0 mm
03:40 PM 65.7°F18.7°C 51.5°F10.8°C 60% 5.8 mph NE9.3 kmh NE 9.2 mph14.8 kmh 30.20 in1022.7 mb 0.00 in0.0 mm 0.00 in/hr0.0 mm/hr 0.00 in0.0 mm
03:50 PM 64.9°F18.3°C 51.1°F10.6°C 61% 5.8 mph ENE9.3 kmh ENE 10.4 mph16.7 kmh 30.21 in1023.0 mb 0.00 in0.0 mm 0.00 in/hr0.0 mm/hr 0.00 in0.0 mm
04:00 PM 64.6°F18.1°C 51.3°F10.7°C 62% 6.9 mph NE11.1 kmh NE 11.5 mph18.5 kmh 30.20 in1022.7 mb 0.00 in0.0 mm 0.00 in/hr0.0 mm/hr 0.00 in0.0 mm
04:10 PM 64.4°F18.0°C 51.5°F10.8°C 63% 5.8 mph E9.3 kmh E 10.4 mph16.7 kmh 30.20 in1022.7 mb 0.00 in0.0 mm 0.00 in/hr0.0 mm/hr 0.00 in0.0 mm
04:20 PM 64.7°F18.2°C 51.3°F10.7°C 62% 6.9 mph ENE11.1 kmh ENE 10.4 mph16.7 kmh 30.20 in1022.7 mb 0.00 in0.0 mm 0.00 in/hr0.0 mm/hr 0.00 in0.0 mm
04:30 PM 64.2°F17.9°C 50.9°F10.5°C 62% 6.9 mph ENE11.1 kmh ENE 11.5 mph18.5 kmh 30.20 in1022.7 mb 0.00 in0.0 mm 0.00 in/hr0.0 mm/hr 0.00 in0.0 mm
04:40 PM 63.8°F17.7°C 50.9°F10.5°C 63% 5.8 mph E9.3 kmh E 11.5 mph18.5 kmh 30.20 in1022.7 mb 0.00 in0.0 mm 0.00 in/hr0.0 mm/hr 0.00 in0.0 mm
04:50 PM 63.3°F17.4°C 50.5°F10.3°C 63% 6.9 mph ENE11.1 kmh ENE 11.5 mph18.5 kmh 30.20 in1022.7 mb 0.00 in0.0 mm 0.00 in/hr0.0 mm/hr 0.00 in0.0 mm
05:00 PM 63.1°F17.3°C 50.7°F10.4°C 64% 4.6 mph ESE7.4 kmh ESE 10.4 mph16.7 kmh 30.20 in1022.7 mb 0.00 in0.0 mm 0.00 in/hr0.0 mm/hr 0.00 in0.0 mm
05:10 PM 62.8°F17.1°C 50.0°F10.0°C 63% 5.8 mph ESE9.3 kmh ESE 8.1 mph13.0 kmh 30.20 in1022.7 mb 0.00 in0.0 mm 0.00 in/hr0.0 mm/hr 0.00 in0.0 mm
05:20 PM 62.0°F16.7°C 50.6°F10.3°C 66% 1.2 mph E1.9 kmh E 12.7 mph20.4 kmh 30.20 in1022.7 mb 0.00 in0.0 mm 0.00 in/hr0.0 mm/hr 0.00 in0.0 mm
05:30 PM 61.6°F16.4°C 50.1°F10.1°C 66% 5.8 mph E9.3 kmh E 10.4 mph16.7 kmh 30.20 in1022.7 mb 0.00 in0.0 mm 0.00 in/hr0.0 mm/hr 0.00 in0.0 mm
05:40 PM 61.1°F16.2°C 50.1°F10.1°C 67% 4.6 mph ENE7.4 kmh ENE 12.7 mph20.4 kmh 30.20 in1022.7 mb 0.00 in0.0 mm 0.00 in/hr0.0 mm/hr 0.00 in0.0 mm
05:50 PM 60.8°F16.0°C 50.2°F10.1°C 68% 3.5 mph E5.6 kmh E 6.9 mph11.1 kmh 30.21 in1023.0 mb 0.00 in0.0 mm 0.00 in/hr0.0 mm/hr 0.00 in0.0 mm
06:00 PM 60.4°F15.8°C 50.2°F10.1°C 69% 2.3 mph E3.7 kmh E 11.5 mph18.5 kmh 30.21 in1023.0 mb 0.00 in0.0 mm 0.00 in/hr0.0 mm/hr 0.00 in0.0 mm
06:10 PM 59.7°F15.4°C 49.9°F9.9°C 70% 4.6 mph E7.4 kmh E 10.4 mph16.7 kmh 30.21 in1023.0 mb 0.00 in0.0 mm 0.00 in/hr0.0 mm/hr 0.00 in0.0 mm
06:20 PM 59.1°F15.1°C 49.7°F9.8°C 71% 5.8 mph E9.3 kmh E 10.4 mph16.7 kmh 30.21 in1023.0 mb 0.00 in0.0 mm 0.00 in/hr0.0 mm/hr 0.00 in0.0 mm
06:30 PM 58.4°F14.7°C 49.4°F9.7°C 72% 4.6 mph ENE7.4 kmh ENE 10.4 mph16.7 kmh 30.21 in1023.0 mb 0.00 in0.0 mm 0.00 in/hr0.0 mm/hr 0.00 in0.0 mm
06:40 PM 58.2°F14.6°C 49.6°F9.8°C 73% 3.5 mph E5.6 kmh E 11.5 mph18.5 kmh 30.21 in1023.0 mb 0.00 in0.0 mm 0.00 in/hr0.0 mm/hr 0.00 in0.0 mm
06:50 PM 57.9°F14.4°C 49.3°F9.6°C 73% 4.6 mph E7.4 kmh E 6.9 mph11.1 kmh 30.21 in1023.0 mb 0.00 in0.0 mm 0.00 in/hr0.0 mm/hr 0.00 in0.0 mm
07:00 PM 57.5°F14.2°C 49.3°F9.6°C 74% 5.8 mph E9.3 kmh E 10.4 mph16.7 kmh 30.21 in1023.0 mb 0.00 in0.0 mm 0.00 in/hr0.0 mm/hr 0.00 in0.0 mm
07:10 PM 57.2°F14.0°C 49.0°F9.4°C 74% 4.6 mph E7.4 kmh E 10.4 mph16.7 kmh 30.21 in1023.0 mb 0.00 in0.0 mm 0.00 in/hr0.0 mm/hr 0.00 in0.0 mm
07:20 PM 57.0°F13.9°C 49.1°F9.5°C 75% Calm Calm 5.8 mph9.3 kmh 30.22 in1023.4 mb 0.00 in0.0 mm 0.00 in/hr0.0 mm/hr 0.00 in0.0 mm
07:30 PM 56.6°F13.7°C 49.1°F9.5°C 76% 3.5 mph E5.6 kmh E 6.9 mph11.1 kmh 30.22 in1023.4 mb 0.00 in0.0 mm 0.00 in/hr0.0 mm/hr 0.00 in0.0 mm
07:40 PM 56.3°F13.5°C 48.8°F9.3°C 76% 2.3 mph E3.7 kmh E 3.5 mph5.6 kmh 30.22 in1023.4 mb 0.00 in0.0 mm 0.00 in/hr0.0 mm/hr 0.00 in0.0 mm
07:50 PM 56.0°F13.3°C 48.9°F9.4°C 77% 2.3 mph E3.7 kmh E 4.6 mph7.4 kmh 30.22 in1023.4 mb 0.00 in0.0 mm 0.00 in/hr0.0 mm/hr 0.00 in0.0 mm
08:00 PM 55.7°F13.2°C 48.6°F9.2°C 77% Calm Calm 5.8 mph9.3 kmh 30.22 in1023.4 mb 0.00 in0.0 mm 0.00 in/hr0.0 mm/hr 0.00 in0.0 mm
08:10 PM 55.5°F13.1°C 48.4°F9.1°C 77% 3.5 mph ENE5.6 kmh ENE 8.1 mph13.0 kmh 30.22 in1023.4 mb 0.00 in0.0 mm 0.00 in/hr0.0 mm/hr 0.00 in0.0 mm
08:20 PM 55.3°F12.9°C 48.2°F9.0°C 77% 1.2 mph ENE1.9 kmh ENE 5.8 mph9.3 kmh 30.23 in1023.7 mb 0.00 in0.0 mm 0.00 in/hr0.0 mm/hr 0.00 in0.0 mm
08:30 PM 55.2°F12.9°C 48.5°F9.2°C 78% 1.2 mph E1.9 kmh E 5.8 mph9.3 kmh 30.23 in1023.7 mb 0.00 in0.0 mm 0.00 in/hr0.0 mm/hr 0.00 in0.0 mm
08:40 PM 55.0°F12.8°C 47.9°F8.8°C 77% Calm Calm 5.8 mph9.3 kmh 30.23 in1023.7 mb 0.00 in0.0 mm 0.00 in/hr0.0 mm/hr 0.00 in0.0 mm
08:50 PM 54.8°F12.7°C 48.1°F8.9°C 78% Calm Calm 1.2 mph1.9 kmh 30.23 in1023.7 mb 0.00 in0.0 mm 0.00 in/hr0.0 mm/hr 0.00 in0.0 mm
09:00 PM 54.6°F12.6°C 47.9°F8.8°C 78% Calm Calm 5.8 mph9.3 kmh 30.23 in1023.7 mb 0.00 in0.0 mm 0.00 in/hr0.0 mm/hr 0.00 in0.0 mm
09:10 PM 54.6°F12.6°C 47.9°F8.8°C 78% Calm Calm -- 30.23 in1023.7 mb 0.00 in0.0 mm 0.00 in/hr0.0 mm/hr 0.00 in0.0 mm
09:20 PM 54.5°F12.5°C 47.8°F8.8°C 78% Calm Calm -- 30.23 in1023.7 mb 0.00 in0.0 mm 0.00 in/hr0.0 mm/hr 0.00 in0.0 mm
09:30 PM 54.4°F12.4°C 47.7°F8.7°C 78% 1.2 mph E1.9 kmh E 3.5 mph5.6 kmh 30.23 in1023.7 mb 0.00 in0.0 mm 0.00 in/hr0.0 mm/hr 0.00 in0.0 mm
09:40 PM 54.3°F12.4°C 47.6°F8.7°C 78% Calm Calm 2.3 mph3.7 kmh 30.23 in1023.7 mb 0.00 in0.0 mm 0.00 in/hr0.0 mm/hr 0.00 in0.0 mm
09:50 PM 54.3°F12.4°C 47.6°F8.7°C 78% Calm Calm -- 30.23 in1023.7 mb 0.00 in0.0 mm 0.00 in/hr0.0 mm/hr 0.00 in0.0 mm
10:00 PM 54.3°F12.4°C 47.6°F8.7°C 78% Calm Calm -- 30.22 in1023.4 mb 0.00 in0.0 mm 0.00 in/hr0.0 mm/hr 0.00 in0.0 mm
10:10 PM 54.2°F12.3°C 47.5°F8.6°C 78% Calm Calm -- 30.21 in1023.0 mb 0.00 in0.0 mm 0.00 in/hr0.0 mm/hr 0.00 in0.0 mm
10:20 PM 54.1°F12.3°C 47.4°F8.6°C 78% Calm Calm -- 30.21 in1023.0 mb 0.00 in0.0 mm 0.00 in/hr0.0 mm/hr 0.00 in0.0 mm
10:30 PM 54.1°F12.3°C 47.4°F8.6°C 78% Calm Calm 2.3 mph3.7 kmh 30.21 in1023.0 mb 0.00 in0.0 mm 0.00 in/hr0.0 mm/hr 0.00 in0.0 mm
10:40 PM 53.9°F12.2°C 47.2°F8.4°C 78% Calm Calm -- 30.21 in1023.0 mb 0.00 in0.0 mm 0.00 in/hr0.0 mm/hr 0.00 in0.0 mm
10:50 PM 53.8°F12.1°C 47.1°F8.4°C 78% 1.2 mph ENE1.9 kmh ENE 3.5 mph5.6 kmh 30.20 in1022.7 mb 0.00 in0.0 mm 0.00 in/hr0.0 mm/hr 0.00 in0.0 mm
11:00 PM 53.7°F12.1°C 47.0°F8.3°C 78% Calm Calm -- 30.20 in1022.7 mb 0.00 in0.0 mm 0.00 in/hr0.0 mm/hr 0.00 in0.0 mm
11:10 PM 53.5°F11.9°C 46.8°F8.2°C 78% 2.3 mph NE3.7 kmh NE 4.6 mph7.4 kmh 30.19 in1022.4 mb 0.00 in0.0 mm 0.00 in/hr0.0 mm/hr 0.00 in0.0 mm
11:20 PM 53.4°F11.9°C 46.7°F8.2°C 78% Calm Calm -- 30.18 in1022.0 mb 0.00 in0.0 mm 0.00 in/hr0.0 mm/hr 0.00 in0.0 mm
11:30 PM 53.3°F11.8°C 46.6°F8.1°C 78% Calm Calm -- 30.18 in1022.0 mb 0.00 in0.0 mm 0.00 in/hr0.0 mm/hr 0.00 in0.0 mm
11:40 PM 53.1°F11.7°C 46.4°F8.0°C 78% Calm Calm -- 30.18 in1022.0 mb 0.00 in0.0 mm 0.00 in/hr0.0 mm/hr 0.00 in0.0 mm
11:50 PM 52.9°F11.6°C 46.2°F7.9°C 78% Calm Calm -- 30.17 in1021.7 mb 0.00 in0.0 mm 0.00 in/hr0.0 mm/hr 0.00 in0.0 mm